LFKJLFKS

Guest
Details From LFKJ - Napoleon Bonaparte
To LFKS - Solenzara
Flight Number -
Tags generated
Created
Modified
Stats Distance 28 nm / 53 km
Max Altitude 100 ft / 30 m
Waypoints 3
Social Downloads 0
Likes 0
Share VATSIM

Download

Looking for another format? Having issues loading an existing format? Contact us
Advertisement - Login to hide

Notes

Basic altitude profile: - Ascent Rate: 2500ft/min - Ascent Speed: 250kts - Cruise Altitude: 35000ft - Cruise Speed: 420kts - Descent Rate: 1500ft/min - Descent Speed: 250kts Options: - Use NATs: yes - Use PACOTS: yes - Use low airways: yes - Use high airways: yes

Route

LFKJ SZA LFKS

ID Type Via Altitude Latitude Longitude Leg Dist Tot Dist Heading (true) Name
O LFKJ APT - 0 ft / 0 m 41.92289˚ 8.79959˚ - 0 nm - Napoleon Bonaparte
SZA VOR - 100 ft / 30 m 41.93747˚ 9.41622˚ 27 nm 27 nm 88° / 88° -
O LFKS APT - 0 ft / 0 m 41.92462˚ 9.40532˚ 0 nm 28 nm 212° / 212° Solenzara

Altitude Profile

Advertisement - Login to hide

LFKJ

Details ICAO LFKJ (AJA)
Name Napoleon Bonaparte
Region France
Timezone Europe/Paris (UTC+1.0)
Stats Elevation 18 ft / 5 m (AMSL)
Location 41.922886° 8.799587°
Runways 2
Magnetic Variation 2.329° E

METAR

LFKJ 132230Z AUTO 03006KT 9999 FEW030 BKN037 BKN043 08/07 Q1020 TEMPO 4000 RA BKN014 OVC050

Decode

TAF

TAF LFKJ 132000Z 1321/1421 04006KT 9999 SCT030 BKN060 TEMPO 1321/1409 4000 RA BKN014 OVC050 TEMPO 1401/1412 25012G22KT

Decode

Departure Runways

ID Width Length Bearing (true) Bearing (mag) Surface Threshold Offset Overrun Length
02 180 ft / 55 m 7,899 ft / 2,408 m 24.94° 22.61° Asphalt 0 ft / 0 m 164 ft / 50 m
10 98 ft / 30 m 3,447 ft / 1,051 m 94.35° 92.02° Concrete 0 ft / 0 m 164 ft / 50 m
20 180 ft / 55 m 7,899 ft / 2,408 m 204.95° 202.62° Asphalt 745 ft / 227 m 230 ft / 70 m
28 98 ft / 30 m 3,447 ft / 1,051 m 274.36° 272.03° Concrete 213 ft / 65 m 0 ft / 0 m

LFKS

Details ICAO LFKS (SOZ)
Name Solenzara
Region France
Timezone Europe/Paris (UTC+1.0)
Stats Elevation 27 ft / 8 m (AMSL)
Location 41.924616° 9.405323°
Runways 1
Magnetic Variation 2.451° E

METAR

LFKS 132230Z AUTO 22005KT 170V310 9999 SCT066 BKN076 BKN110 14/01 Q1017

Decode

TAF

TAF LFKS 131636Z 1316/1415 CNL

Decode

Destination Runways

ID Width Length Bearing (true) Bearing (mag) Surface Threshold Offset Overrun Length
18 148 ft / 45 m 8,582 ft / 2,616 m 179.77° 177.32° Concrete 0 ft / 0 m 686 ft / 209 m
36 148 ft / 45 m 8,582 ft / 2,616 m 359.77° 357.32° Concrete 0 ft / 0 m 935 ft / 285 m

Approach Navaids

Runway Type Ident Frequency Range Bearing (true) Bearing (mag) Slope Elevation
18 Localiser SZA 109.10 MHz 27 nm / 50 km 178.95° 176.50° - 27 ft / 8 m (AMSL)
18 Glidescope SZA 109.10 MHz 27 nm / 50 km 178.95° 176.50° 2.50° 27 ft / 8 m (AMSL)

Popular Alternatives